sensor_id;sensor_type;location;lat;lon;timestamp;P1;durP1;ratioP1;P2;durP2;ratioP2
9821;SDS011;4950;46.042;14.472;2023-05-07T00:01:01;6.63;;;4.30;;
9821;SDS011;4950;46.042;14.472;2023-05-07T00:03:28;8.00;;;4.40;;
9821;SDS011;4950;46.042;14.472;2023-05-07T00:05:54;9.57;;;4.45;;
9821;SDS011;4950;46.042;14.472;2023-05-07T00:08:22;7.45;;;4.13;;
9821;SDS011;4950;46.042;14.472;2023-05-07T00:10:49;6.35;;;4.55;;
9821;SDS011;4950;46.042;14.472;2023-05-07T00:13:16;7.82;;;4.60;;
9821;SDS011;4950;46.042;14.472;2023-05-07T00:15:42;7.05;;;4.43;;
9821;SDS011;4950;46.042;14.472;2023-05-07T00:18:09;7.72;;;4.43;;
9821;SDS011;4950;46.042;14.472;2023-05-07T00:20:36;6.78;;;4.57;;
9821;SDS011;4950;46.042;14.472;2023-05-07T00:23:02;6.70;;;3.95;;
9821;SDS011;4950;46.042;14.472;2023-05-07T00:25:30;8.18;;;5.07;;
9821;SDS011;4950;46.042;14.472;2023-05-07T00:27:57;7.85;;;4.40;;
9821;SDS011;4950;46.042;14.472;2023-05-07T00:30:27;6.70;;;4.45;;
9821;SDS011;4950;46.042;14.472;2023-05-07T00:32:54;6.28;;;4.50;;
9821;SDS011;4950;46.042;14.472;2023-05-07T00:35:20;7.38;;;4.50;;
9821;SDS011;4950;46.042;14.472;2023-05-07T00:37:47;6.55;;;4.53;;
9821;SDS011;4950;46.042;14.472;2023-05-07T00:40:14;6.30;;;4.10;;
9821;SDS011;4950;46.042;14.472;2023-05-07T00:42:42;8.07;;;4.68;;
9821;SDS011;4950;46.042;14.472;2023-05-07T00:45:11;9.52;;;5.00;;
9821;SDS011;4950;46.042;14.472;2023-05-07T00:47:38;8.95;;;4.40;;
9821;SDS011;4950;46.042;14.472;2023-05-07T00:50:06;8.00;;;4.93;;
9821;SDS011;4950;46.042;14.472;2023-05-07T00:55:01;9.05;;;4.82;;
9821;SDS011;4950;46.042;14.472;2023-05-07T00:57:32;10.25;;;4.95;;
9821;SDS011;4950;46.042;14.472;2023-05-07T01:00:03;7.63;;;4.72;;
9821;SDS011;4950;46.042;14.472;2023-05-07T01:02:31;9.23;;;4.72;;
9821;SDS011;4950;46.042;14.472;2023-05-07T01:04:58;6.85;;;4.50;;
9821;SDS011;4950;46.042;14.472;2023-05-07T01:07:26;8.47;;;4.40;;
9821;SDS011;4950;46.042;14.472;2023-05-07T01:09:53;8.48;;;4.13;;
9821;SDS011;4950;46.042;14.472;2023-05-07T01:12:20;6.18;;;4.07;;
9821;SDS011;4950;46.042;14.472;2023-05-07T01:14:47;9.07;;;3.97;;
9821;SDS011;4950;46.042;14.472;2023-05-07T01:17:16;6.78;;;3.63;;
9821;SDS011;4950;46.042;14.472;2023-05-07T01:19:43;6.72;;;4.22;;
9821;SDS011;4950;46.042;14.472;2023-05-07T01:22:10;5.65;;;3.85;;
9821;SDS011;4950;46.042;14.472;2023-05-07T01:24:39;6.13;;;4.10;;
9821;SDS011;4950;46.042;14.472;2023-05-07T01:27:05;7.38;;;4.25;;
9821;SDS011;4950;46.042;14.472;2023-05-07T01:29:32;7.20;;;4.60;;
9821;SDS011;4950;46.042;14.472;2023-05-07T01:31:59;8.15;;;5.45;;
9821;SDS011;4950;46.042;14.472;2023-05-07T01:34:28;6.53;;;4.65;;
9821;SDS011;4950;46.042;14.472;2023-05-07T01:36:57;9.80;;;4.93;;
9821;SDS011;4950;46.042;14.472;2023-05-07T01:39:25;9.13;;;5.25;;
9821;SDS011;4950;46.042;14.472;2023-05-07T01:41:56;7.38;;;4.65;;
9821;SDS011;4950;46.042;14.472;2023-05-07T01:44:22;8.50;;;5.35;;
9821;SDS011;4950;46.042;14.472;2023-05-07T01:46:50;10.30;;;5.78;;
9821;SDS011;4950;46.042;14.472;2023-05-07T01:49:17;10.20;;;5.93;;
9821;SDS011;4950;46.042;14.472;2023-05-07T01:51:44;7.32;;;5.43;;
9821;SDS011;4950;46.042;14.472;2023-05-07T01:54:11;9.65;;;6.05;;
9821;SDS011;4950;46.042;14.472;2023-05-07T01:56:37;10.23;;;6.70;;
9821;SDS011;4950;46.042;14.472;2023-05-07T01:59:05;10.35;;;6.45;;
9821;SDS011;4950;46.042;14.472;2023-05-07T02:01:32;12.77;;;6.95;;
9821;SDS011;4950;46.042;14.472;2023-05-07T02:03:58;11.90;;;7.45;;
9821;SDS011;4950;46.042;14.472;2023-05-07T02:06:25;12.30;;;6.93;;
9821;SDS011;4950;46.042;14.472;2023-05-07T02:08:52;12.65;;;7.00;;
9821;SDS011;4950;46.042;14.472;2023-05-07T02:11:18;12.10;;;6.65;;
9821;SDS011;4950;46.042;14.472;2023-05-07T02:13:45;11.07;;;7.20;;
9821;SDS011;4950;46.042;14.472;2023-05-07T02:16:13;11.75;;;6.55;;
9821;SDS011;4950;46.042;14.472;2023-05-07T02:18:39;10.75;;;6.60;;
9821;SDS011;4950;46.042;14.472;2023-05-07T02:21:06;10.40;;;6.68;;
9821;SDS011;4950;46.042;14.472;2023-05-07T02:23:33;11.50;;;7.10;;
9821;SDS011;4950;46.042;14.472;2023-05-07T02:25:59;12.82;;;7.57;;
9821;SDS011;4950;46.042;14.472;2023-05-07T02:28:26;11.13;;;6.28;;
9821;SDS011;4950;46.042;14.472;2023-05-07T02:30:52;12.00;;;6.90;;
9821;SDS011;4950;46.042;14.472;2023-05-07T02:33:20;10.30;;;6.50;;
9821;SDS011;4950;46.042;14.472;2023-05-07T02:35:47;11.25;;;6.63;;
9821;SDS011;4950;46.042;14.472;2023-05-07T02:38:13;10.70;;;7.07;;
9821;SDS011;4950;46.042;14.472;2023-05-07T02:40:40;12.40;;;6.85;;
9821;SDS011;4950;46.042;14.472;2023-05-07T02:43:07;11.07;;;6.90;;
9821;SDS011;4950;46.042;14.472;2023-05-07T02:45:34;12.23;;;7.22;;
9821;SDS011;4950;46.042;14.472;2023-05-07T02:48:02;13.23;;;7.45;;
9821;SDS011;4950;46.042;14.472;2023-05-07T02:50:31;13.05;;;6.93;;
9821;SDS011;4950;46.042;14.472;2023-05-07T02:52:58;11.73;;;7.00;;
9821;SDS011;4950;46.042;14.472;2023-05-07T02:55:25;9.88;;;6.00;;
9821;SDS011;4950;46.042;14.472;2023-05-07T02:57:51;11.75;;;6.32;;
9821;SDS011;4950;46.042;14.472;2023-05-07T03:00:18;12.07;;;5.88;;
9821;SDS011;4950;46.042;14.472;2023-05-07T03:02:46;12.18;;;6.25;;
9821;SDS011;4950;46.042;14.472;2023-05-07T03:05:13;8.70;;;5.32;;
9821;SDS011;4950;46.042;14.472;2023-05-07T03:07:41;9.88;;;5.50;;
9821;SDS011;4950;46.042;14.472;2023-05-07T03:10:10;11.70;;;6.10;;
9821;SDS011;4950;46.042;14.472;2023-05-07T03:12:37;8.65;;;5.25;;
9821;SDS011;4950;46.042;14.472;2023-05-07T03:15:04;9.35;;;5.55;;
9821;SDS011;4950;46.042;14.472;2023-05-07T03:17:31;12.80;;;6.10;;
9821;SDS011;4950;46.042;14.472;2023-05-07T03:19:57;9.88;;;6.15;;
9821;SDS011;4950;46.042;14.472;2023-05-07T03:22:24;9.30;;;5.47;;
9821;SDS011;4950;46.042;14.472;2023-05-07T03:24:52;8.95;;;5.78;;
9821;SDS011;4950;46.042;14.472;2023-05-07T03:27:19;10.07;;;5.65;;
9821;SDS011;4950;46.042;14.472;2023-05-07T03:29:45;9.20;;;5.00;;
9821;SDS011;4950;46.042;14.472;2023-05-07T03:32:12;8.27;;;5.65;;
9821;SDS011;4950;46.042;14.472;2023-05-07T03:34:39;10.32;;;5.55;;
9821;SDS011;4950;46.042;14.472;2023-05-07T03:37:06;11.80;;;6.32;;
9821;SDS011;4950;46.042;14.472;2023-05-07T03:39:32;10.27;;;6.32;;
9821;SDS011;4950;46.042;14.472;2023-05-07T03:42:00;10.05;;;6.00;;
9821;SDS011;4950;46.042;14.472;2023-05-07T03:44:27;11.95;;;6.45;;
9821;SDS011;4950;46.042;14.472;2023-05-07T03:46:54;8.48;;;5.78;;
9821;SDS011;4950;46.042;14.472;2023-05-07T03:49:21;9.48;;;4.80;;
9821;SDS011;4950;46.042;14.472;2023-05-07T03:51:47;8.38;;;5.00;;
9821;SDS011;4950;46.042;14.472;2023-05-07T03:54:14;8.05;;;5.25;;
9821;SDS011;4950;46.042;14.472;2023-05-07T03:56:41;8.05;;;5.38;;
9821;SDS011;4950;46.042;14.472;2023-05-07T03:59:11;8.35;;;5.15;;
9821;SDS011;4950;46.042;14.472;2023-05-07T04:01:41;8.13;;;5.20;;
9821;SDS011;4950;46.042;14.472;2023-05-07T04:04:07;13.35;;;4.95;;
9821;SDS011;4950;46.042;14.472;2023-05-07T04:06:34;9.60;;;4.93;;
9821;SDS011;4950;46.042;14.472;2023-05-07T04:09:00;6.45;;;4.10;;
9821;SDS011;4950;46.042;14.472;2023-05-07T04:11:27;6.50;;;4.25;;
9821;SDS011;4950;46.042;14.472;2023-05-07T04:13:53;8.55;;;4.53;;
9821;SDS011;4950;46.042;14.472;2023-05-07T04:16:21;8.38;;;4.80;;
9821;SDS011;4950;46.042;14.472;2023-05-07T04:18:49;11.18;;;5.40;;
9821;SDS011;4950;46.042;14.472;2023-05-07T04:21:16;7.55;;;4.53;;
9821;SDS011;4950;46.042;14.472;2023-05-07T04:23:43;12.23;;;5.35;;
9821;SDS011;4950;46.042;14.472;2023-05-07T04:26:10;8.77;;;4.50;;
9821;SDS011;4950;46.042;14.472;2023-05-07T04:28:36;7.38;;;4.18;;
9821;SDS011;4950;46.042;14.472;2023-05-07T04:31:04;7.43;;;4.60;;
9821;SDS011;4950;46.042;14.472;2023-05-07T04:33:32;6.40;;;4.28;;
9821;SDS011;4950;46.042;14.472;2023-05-07T04:36:00;11.10;;;5.13;;
9821;SDS011;4950;46.042;14.472;2023-05-07T04:38:28;8.82;;;5.05;;
9821;SDS011;4950;46.042;14.472;2023-05-07T04:40:55;6.95;;;4.78;;
9821;SDS011;4950;46.042;14.472;2023-05-07T04:43:22;7.10;;;4.45;;
9821;SDS011;4950;46.042;14.472;2023-05-07T04:45:50;8.95;;;4.82;;
9821;SDS011;4950;46.042;14.472;2023-05-07T04:48:16;7.65;;;5.25;;
9821;SDS011;4950;46.042;14.472;2023-05-07T04:50:45;8.90;;;5.40;;
9821;SDS011;4950;46.042;14.472;2023-05-07T04:53:13;10.15;;;5.50;;
9821;SDS011;4950;46.042;14.472;2023-05-07T04:55:40;8.70;;;5.68;;
9821;SDS011;4950;46.042;14.472;2023-05-07T04:58:07;9.48;;;5.93;;
9821;SDS011;4950;46.042;14.472;2023-05-07T05:00:33;8.68;;;5.53;;
9821;SDS011;4950;46.042;14.472;2023-05-07T05:03:00;9.13;;;5.80;;
9821;SDS011;4950;46.042;14.472;2023-05-07T05:05:27;9.95;;;5.88;;
9821;SDS011;4950;46.042;14.472;2023-05-07T05:07:55;10.85;;;6.15;;
9821;SDS011;4950;46.042;14.472;2023-05-07T05:10:21;8.18;;;5.65;;
9821;SDS011;4950;46.042;14.472;2023-05-07T05:12:48;14.10;;;6.60;;
9821;SDS011;4950;46.042;14.472;2023-05-07T05:15:15;11.68;;;5.90;;
9821;SDS011;4950;46.042;14.472;2023-05-07T05:17:41;9.25;;;6.38;;
9821;SDS011;4950;46.042;14.472;2023-05-07T05:20:08;8.10;;;5.32;;
9821;SDS011;4950;46.042;14.472;2023-05-07T05:22:35;9.45;;;5.75;;
9821;SDS011;4950;46.042;14.472;2023-05-07T05:25:04;9.57;;;6.38;;
9821;SDS011;4950;46.042;14.472;2023-05-07T05:27:31;8.27;;;5.47;;
9821;SDS011;4950;46.042;14.472;2023-05-07T05:29:57;9.65;;;6.75;;
9821;SDS011;4950;46.042;14.472;2023-05-07T05:32:24;9.68;;;6.47;;
9821;SDS011;4950;46.042;14.472;2023-05-07T05:34:51;9.13;;;6.15;;
9821;SDS011;4950;46.042;14.472;2023-05-07T05:37:18;11.55;;;6.82;;
9821;SDS011;4950;46.042;14.472;2023-05-07T05:39:45;8.90;;;6.60;;
9821;SDS011;4950;46.042;14.472;2023-05-07T05:42:13;11.52;;;6.40;;
9821;SDS011;4950;46.042;14.472;2023-05-07T05:44:40;10.45;;;6.60;;
9821;SDS011;4950;46.042;14.472;2023-05-07T05:47:07;11.90;;;6.90;;
9821;SDS011;4950;46.042;14.472;2023-05-07T05:49:34;11.40;;;6.90;;
9821;SDS011;4950;46.042;14.472;2023-05-07T05:52:01;11.43;;;7.72;;
9821;SDS011;4950;46.042;14.472;2023-05-07T05:54:28;10.23;;;7.22;;
9821;SDS011;4950;46.042;14.472;2023-05-07T05:56:55;10.75;;;7.75;;
9821;SDS011;4950;46.042;14.472;2023-05-07T05:59:23;11.63;;;7.35;;
9821;SDS011;4950;46.042;14.472;2023-05-07T06:01:49;11.98;;;8.30;;
9821;SDS011;4950;46.042;14.472;2023-05-07T06:04:16;10.40;;;7.78;;
9821;SDS011;4950;46.042;14.472;2023-05-07T06:06:43;9.52;;;7.32;;
9821;SDS011;4950;46.042;14.472;2023-05-07T06:09:09;11.98;;;8.23;;
9821;SDS011;4950;46.042;14.472;2023-05-07T06:11:36;12.35;;;7.13;;
9821;SDS011;4950;46.042;14.472;2023-05-07T06:14:02;12.52;;;7.28;;
9821;SDS011;4950;46.042;14.472;2023-05-07T06:16:30;11.20;;;6.68;;
9821;SDS011;4950;46.042;14.472;2023-05-07T06:18:57;11.20;;;7.22;;
9821;SDS011;4950;46.042;14.472;2023-05-07T06:21:24;9.00;;;7.07;;
9821;SDS011;4950;46.042;14.472;2023-05-07T06:23:50;10.20;;;7.20;;
9821;SDS011;4950;46.042;14.472;2023-05-07T06:26:17;9.18;;;6.85;;
9821;SDS011;4950;46.042;14.472;2023-05-07T06:28:43;11.13;;;6.68;;
9821;SDS011;4950;46.042;14.472;2023-05-07T06:31:11;12.68;;;7.88;;
9821;SDS011;4950;46.042;14.472;2023-05-07T06:33:39;10.77;;;7.75;;
9821;SDS011;4950;46.042;14.472;2023-05-07T06:36:06;10.43;;;7.75;;
9821;SDS011;4950;46.042;14.472;2023-05-07T06:38:33;11.82;;;7.72;;
9821;SDS011;4950;46.042;14.472;2023-05-07T06:41:00;15.73;;;7.78;;
9821;SDS011;4950;46.042;14.472;2023-05-07T06:43:26;11.57;;;7.68;;
9821;SDS011;4950;46.042;14.472;2023-05-07T06:45:53;12.13;;;7.05;;
9821;SDS011;4950;46.042;14.472;2023-05-07T06:48:20;13.63;;;7.80;;
9821;SDS011;4950;46.042;14.472;2023-05-07T06:50:48;10.80;;;7.50;;
9821;SDS011;4950;46.042;14.472;2023-05-07T06:53:15;9.82;;;7.57;;
9821;SDS011;4950;46.042;14.472;2023-05-07T06:55:41;11.00;;;7.80;;
9821;SDS011;4950;46.042;14.472;2023-05-07T06:58:08;11.57;;;7.53;;
9821;SDS011;4950;46.042;14.472;2023-05-07T07:00:34;10.70;;;7.47;;
9821;SDS011;4950;46.042;14.472;2023-05-07T07:03:01;13.20;;;7.07;;
9821;SDS011;4950;46.042;14.472;2023-05-07T07:05:27;11.15;;;7.30;;
9821;SDS011;4950;46.042;14.472;2023-05-07T07:07:55;11.52;;;7.25;;
9821;SDS011;4950;46.042;14.472;2023-05-07T07:10:22;12.57;;;7.38;;
9821;SDS011;4950;46.042;14.472;2023-05-07T07:12:49;10.88;;;6.60;;
9821;SDS011;4950;46.042;14.472;2023-05-07T07:15:17;12.05;;;6.72;;
9821;SDS011;4950;46.042;14.472;2023-05-07T07:17:45;10.27;;;6.97;;
9821;SDS011;4950;46.042;14.472;2023-05-07T07:20:12;11.98;;;7.78;;
9821;SDS011;4950;46.042;14.472;2023-05-07T07:22:38;11.50;;;7.97;;
9821;SDS011;4950;46.042;14.472;2023-05-07T07:25:07;9.48;;;6.90;;
9821;SDS011;4950;46.042;14.472;2023-05-07T07:27:34;11.75;;;7.32;;
9821;SDS011;4950;46.042;14.472;2023-05-07T07:30:01;8.77;;;6.13;;
9821;SDS011;4950;46.042;14.472;2023-05-07T07:32:28;10.93;;;6.90;;
9821;SDS011;4950;46.042;14.472;2023-05-07T07:34:54;11.27;;;7.60;;
9821;SDS011;4950;46.042;14.472;2023-05-07T07:37:21;12.07;;;8.23;;
9821;SDS011;4950;46.042;14.472;2023-05-07T07:39:47;12.00;;;7.93;;
9821;SDS011;4950;46.042;14.472;2023-05-07T07:42:15;11.38;;;7.38;;
9821;SDS011;4950;46.042;14.472;2023-05-07T07:44:44;13.27;;;7.32;;
9821;SDS011;4950;46.042;14.472;2023-05-07T07:47:10;13.75;;;7.82;;
9821;SDS011;4950;46.042;14.472;2023-05-07T07:49:37;10.75;;;6.75;;
9821;SDS011;4950;46.042;14.472;2023-05-07T07:52:04;13.75;;;7.18;;
9821;SDS011;4950;46.042;14.472;2023-05-07T07:54:30;11.65;;;6.97;;
9821;SDS011;4950;46.042;14.472;2023-05-07T07:56:57;16.05;;;6.60;;
9821;SDS011;4950;46.042;14.472;2023-05-07T07:59:25;9.90;;;6.75;;
9821;SDS011;4950;46.042;14.472;2023-05-07T08:01:52;16.20;;;6.97;;
9821;SDS011;4950;46.042;14.472;2023-05-07T08:04:20;18.00;;;6.82;;
9821;SDS011;4950;46.042;14.472;2023-05-07T08:06:47;10.63;;;6.50;;
9821;SDS011;4950;46.042;14.472;2023-05-07T08:09:13;10.57;;;5.63;;
9821;SDS011;4950;46.042;14.472;2023-05-07T08:11:40;9.75;;;5.78;;
9821;SDS011;4950;46.042;14.472;2023-05-07T08:14:07;10.45;;;5.70;;
9821;SDS011;4950;46.042;14.472;2023-05-07T08:16:35;10.50;;;5.40;;
9821;SDS011;4950;46.042;14.472;2023-05-07T08:19:03;9.70;;;6.25;;
9821;SDS011;4950;46.042;14.472;2023-05-07T08:21:30;9.65;;;5.15;;
9821;SDS011;4950;46.042;14.472;2023-05-07T08:23:57;11.05;;;6.03;;
9821;SDS011;4950;46.042;14.472;2023-05-07T08:26:24;9.60;;;5.57;;
9821;SDS011;4950;46.042;14.472;2023-05-07T08:28:51;117.78;;;10.85;;
9821;SDS011;4950;46.042;14.472;2023-05-07T08:31:17;56.35;;;7.15;;
9821;SDS011;4950;46.042;14.472;2023-05-07T08:33:45;8.00;;;4.82;;
9821;SDS011;4950;46.042;14.472;2023-05-07T08:36:12;10.43;;;5.28;;
9821;SDS011;4950;46.042;14.472;2023-05-07T08:38:38;6.28;;;4.22;;
9821;SDS011;4950;46.042;14.472;2023-05-07T08:41:09;6.47;;;4.50;;
9821;SDS011;4950;46.042;14.472;2023-05-07T08:43:36;8.68;;;5.03;;
9821;SDS011;4950;46.042;14.472;2023-05-07T08:46:06;6.50;;;4.38;;
9821;SDS011;4950;46.042;14.472;2023-05-07T08:48:35;6.55;;;4.60;;
9821;SDS011;4950;46.042;14.472;2023-05-07T08:51:04;6.82;;;3.88;;
9821;SDS011;4950;46.042;14.472;2023-05-07T08:53:31;5.90;;;3.65;;
9821;SDS011;4950;46.042;14.472;2023-05-07T08:55:59;5.88;;;3.72;;
9821;SDS011;4950;46.042;14.472;2023-05-07T08:58:25;7.63;;;4.38;;
9821;SDS011;4950;46.042;14.472;2023-05-07T09:00:52;7.18;;;4.00;;
9821;SDS011;4950;46.042;14.472;2023-05-07T09:03:20;11.27;;;4.03;;
9821;SDS011;4950;46.042;14.472;2023-05-07T09:05:46;5.68;;;3.78;;
9821;SDS011;4950;46.042;14.472;2023-05-07T09:08:15;8.98;;;4.22;;
9821;SDS011;4950;46.042;14.472;2023-05-07T09:10:42;5.60;;;3.92;;
9821;SDS011;4950;46.042;14.472;2023-05-07T09:13:08;8.40;;;4.10;;
9821;SDS011;4950;46.042;14.472;2023-05-07T09:15:38;6.80;;;3.90;;
9821;SDS011;4950;46.042;14.472;2023-05-07T09:18:04;5.75;;;3.95;;
9821;SDS011;4950;46.042;14.472;2023-05-07T09:20:31;8.55;;;4.05;;
9821;SDS011;4950;46.042;14.472;2023-05-07T09:22:57;5.47;;;4.03;;
9821;SDS011;4950;46.042;14.472;2023-05-07T09:25:29;10.13;;;4.30;;
9821;SDS011;4950;46.042;14.472;2023-05-07T09:27:56;7.75;;;4.20;;
9821;SDS011;4950;46.042;14.472;2023-05-07T09:30:26;6.90;;;4.00;;
9821;SDS011;4950;46.042;14.472;2023-05-07T09:32:54;8.50;;;4.40;;
9821;SDS011;4950;46.042;14.472;2023-05-07T09:35:20;8.10;;;4.60;;
9821;SDS011;4950;46.042;14.472;2023-05-07T09:37:49;8.50;;;4.22;;
9821;SDS011;4950;46.042;14.472;2023-05-07T09:40:22;6.60;;;4.20;;
9821;SDS011;4950;46.042;14.472;2023-05-07T09:42:51;10.55;;;5.60;;
9821;SDS011;4950;46.042;14.472;2023-05-07T09:45:21;7.75;;;4.65;;
9821;SDS011;4950;46.042;14.472;2023-05-07T09:47:48;9.93;;;4.57;;
9821;SDS011;4950;46.042;14.472;2023-05-07T09:50:19;10.27;;;5.65;;
9821;SDS011;4950;46.042;14.472;2023-05-07T09:52:51;10.70;;;5.30;;
9821;SDS011;4950;46.042;14.472;2023-05-07T09:55:19;15.43;;;7.05;;
9821;SDS011;4950;46.042;14.472;2023-05-07T09:57:46;15.85;;;6.13;;
9821;SDS011;4950;46.042;14.472;2023-05-07T10:00:20;7.38;;;3.88;;
9821;SDS011;4950;46.042;14.472;2023-05-07T10:02:48;7.22;;;4.10;;
9821;SDS011;4950;46.042;14.472;2023-05-07T10:05:17;6.57;;;3.70;;
9821;SDS011;4950;46.042;14.472;2023-05-07T10:07:44;6.68;;;4.10;;
9821;SDS011;4950;46.042;14.472;2023-05-07T10:10:12;7.82;;;4.00;;
9821;SDS011;4950;46.042;14.472;2023-05-07T10:12:40;6.68;;;3.75;;
9821;SDS011;4950;46.042;14.472;2023-05-07T10:15:07;5.88;;;4.03;;
9821;SDS011;4950;46.042;14.472;2023-05-07T10:17:37;5.43;;;3.90;;
9821;SDS011;4950;46.042;14.472;2023-05-07T10:20:05;5.88;;;4.00;;
9821;SDS011;4950;46.042;14.472;2023-05-07T10:22:33;10.13;;;4.07;;
9821;SDS011;4950;46.042;14.472;2023-05-07T10:25:05;12.48;;;3.95;;
9821;SDS011;4950;46.042;14.472;2023-05-07T10:27:36;5.43;;;3.58;;
9821;SDS011;4950;46.042;14.472;2023-05-07T10:30:07;5.72;;;3.83;;
9821;SDS011;4950;46.042;14.472;2023-05-07T10:32:45;7.80;;;3.70;;
9821;SDS011;4950;46.042;14.472;2023-05-07T10:35:17;14.40;;;4.18;;
9821;SDS011;4950;46.042;14.472;2023-05-07T10:37:45;10.90;;;3.70;;
9821;SDS011;4950;46.042;14.472;2023-05-07T10:40:12;8.75;;;3.42;;
9821;SDS011;4950;46.042;14.472;2023-05-07T10:42:52;5.47;;;3.35;;
9821;SDS011;4950;46.042;14.472;2023-05-07T10:45:21;6.88;;;3.35;;
9821;SDS011;4950;46.042;14.472;2023-05-07T10:48:06;7.85;;;3.60;;
9821;SDS011;4950;46.042;14.472;2023-05-07T10:50:37;13.35;;;3.42;;
9821;SDS011;4950;46.042;14.472;2023-05-07T10:53:20;5.80;;;3.03;;
9821;SDS011;4950;46.042;14.472;2023-05-07T10:58:53;4.95;;;3.30;;
9821;SDS011;4950;46.042;14.472;2023-05-07T11:04:19;4.93;;;2.65;;
9821;SDS011;4950;46.042;14.472;2023-05-07T11:10:04;5.93;;;2.80;;
9821;SDS011;4950;46.042;14.472;2023-05-07T11:12:48;5.20;;;2.67;;
9821;SDS011;4950;46.042;14.472;2023-05-07T11:15:35;5.35;;;2.60;;
9821;SDS011;4950;46.042;14.472;2023-05-07T11:18:09;4.43;;;2.75;;
9821;SDS011;4950;46.042;14.472;2023-05-07T11:20:51;6.03;;;2.60;;
9821;SDS011;4950;46.042;14.472;2023-05-07T11:26:45;4.78;;;2.83;;
9821;SDS011;4950;46.042;14.472;2023-05-07T11:29:17;5.10;;;3.30;;
9821;SDS011;4950;46.042;14.472;2023-05-07T11:31:48;5.45;;;3.05;;
9821;SDS011;4950;46.042;14.472;2023-05-07T11:34:16;6.45;;;3.03;;
9821;SDS011;4950;46.042;14.472;2023-05-07T11:36:52;4.10;;;2.47;;
9821;SDS011;4950;46.042;14.472;2023-05-07T11:39:26;5.68;;;3.15;;
9821;SDS011;4950;46.042;14.472;2023-05-07T11:41:54;4.03;;;3.10;;
9821;SDS011;4950;46.042;14.472;2023-05-07T11:44:22;7.10;;;3.10;;
9821;SDS011;4950;46.042;14.472;2023-05-07T11:46:51;3.70;;;2.80;;
9821;SDS011;4950;46.042;14.472;2023-05-07T11:49:18;7.60;;;2.83;;
9821;SDS011;4950;46.042;14.472;2023-05-07T11:51:45;5.10;;;2.70;;
9821;SDS011;4950;46.042;14.472;2023-05-07T11:54:13;6.47;;;3.10;;
9821;SDS011;4950;46.042;14.472;2023-05-07T11:56:43;4.32;;;2.80;;
9821;SDS011;4950;46.042;14.472;2023-05-07T11:59:11;4.85;;;3.00;;
9821;SDS011;4950;46.042;14.472;2023-05-07T12:01:37;4.97;;;2.92;;
9821;SDS011;4950;46.042;14.472;2023-05-07T12:04:04;7.25;;;2.90;;
9821;SDS011;4950;46.042;14.472;2023-05-07T12:06:31;7.10;;;3.13;;
9821;SDS011;4950;46.042;14.472;2023-05-07T12:09:02;4.75;;;3.10;;
9821;SDS011;4950;46.042;14.472;2023-05-07T12:11:31;3.75;;;2.80;;
9821;SDS011;4950;46.042;14.472;2023-05-07T12:13:57;4.97;;;3.13;;
9821;SDS011;4950;46.042;14.472;2023-05-07T12:16:27;6.18;;;2.70;;
9821;SDS011;4950;46.042;14.472;2023-05-07T12:18:54;6.65;;;3.20;;
9821;SDS011;4950;46.042;14.472;2023-05-07T12:21:23;5.10;;;2.63;;
9821;SDS011;4950;46.042;14.472;2023-05-07T12:24:01;3.88;;;3.00;;
9821;SDS011;4950;46.042;14.472;2023-05-07T12:26:28;4.93;;;2.50;;
9821;SDS011;4950;46.042;14.472;2023-05-07T12:28:56;3.75;;;2.83;;
9821;SDS011;4950;46.042;14.472;2023-05-07T12:31:25;4.32;;;2.95;;
9821;SDS011;4950;46.042;14.472;2023-05-07T12:33:52;3.13;;;2.22;;
9821;SDS011;4950;46.042;14.472;2023-05-07T12:36:18;4.05;;;2.70;;
9821;SDS011;4950;46.042;14.472;2023-05-07T12:38:46;4.45;;;3.10;;
9821;SDS011;4950;46.042;14.472;2023-05-07T12:41:15;4.35;;;2.70;;
9821;SDS011;4950;46.042;14.472;2023-05-07T12:43:43;4.75;;;2.45;;
9821;SDS011;4950;46.042;14.472;2023-05-07T12:46:12;6.60;;;3.00;;
9821;SDS011;4950;46.042;14.472;2023-05-07T12:48:43;3.50;;;2.30;;
9821;SDS011;4950;46.042;14.472;2023-05-07T12:51:10;7.82;;;2.90;;
9821;SDS011;4950;46.042;14.472;2023-05-07T12:53:39;4.70;;;2.93;;
9821;SDS011;4950;46.042;14.472;2023-05-07T12:56:07;3.47;;;2.30;;
9821;SDS011;4950;46.042;14.472;2023-05-07T12:58:34;5.18;;;2.35;;
9821;SDS011;4950;46.042;14.472;2023-05-07T13:01:04;4.70;;;2.13;;
9821;SDS011;4950;46.042;14.472;2023-05-07T13:03:34;4.13;;;2.13;;
9821;SDS011;4950;46.042;14.472;2023-05-07T13:06:02;3.63;;;2.10;;
9821;SDS011;4950;46.042;14.472;2023-05-07T13:08:31;3.50;;;2.20;;
9821;SDS011;4950;46.042;14.472;2023-05-07T13:10:59;4.55;;;2.33;;
9821;SDS011;4950;46.042;14.472;2023-05-07T13:13:28;3.38;;;2.33;;
9821;SDS011;4950;46.042;14.472;2023-05-07T13:15:55;5.22;;;2.90;;
9821;SDS011;4950;46.042;14.472;2023-05-07T13:18:22;7.97;;;3.10;;
9821;SDS011;4950;46.042;14.472;2023-05-07T13:20:51;4.72;;;3.13;;
9821;SDS011;4950;46.042;14.472;2023-05-07T13:23:18;6.18;;;3.22;;
9821;SDS011;4950;46.042;14.472;2023-05-07T13:25:45;3.97;;;3.10;;
9821;SDS011;4950;46.042;14.472;2023-05-07T13:28:12;5.78;;;3.03;;
9821;SDS011;4950;46.042;14.472;2023-05-07T13:30:38;4.78;;;3.13;;
9821;SDS011;4950;46.042;14.472;2023-05-07T13:33:05;6.38;;;3.08;;
9821;SDS011;4950;46.042;14.472;2023-05-07T13:35:32;6.30;;;3.10;;
9821;SDS011;4950;46.042;14.472;2023-05-07T13:38:00;5.50;;;3.00;;
9821;SDS011;4950;46.042;14.472;2023-05-07T13:40:27;3.97;;;2.92;;
9821;SDS011;4950;46.042;14.472;2023-05-07T13:42:53;3.95;;;3.10;;
9821;SDS011;4950;46.042;14.472;2023-05-07T13:45:23;5.30;;;3.15;;
9821;SDS011;4950;46.042;14.472;2023-05-07T13:47:51;7.35;;;3.40;;
9821;SDS011;4950;46.042;14.472;2023-05-07T13:50:17;4.90;;;3.20;;
9821;SDS011;4950;46.042;14.472;2023-05-07T13:52:44;5.32;;;2.97;;
9821;SDS011;4950;46.042;14.472;2023-05-07T13:55:17;5.63;;;2.80;;
9821;SDS011;4950;46.042;14.472;2023-05-07T13:57:43;6.40;;;3.38;;
9821;SDS011;4950;46.042;14.472;2023-05-07T14:00:11;5.10;;;3.20;;
9821;SDS011;4950;46.042;14.472;2023-05-07T14:02:38;6.50;;;2.83;;
9821;SDS011;4950;46.042;14.472;2023-05-07T14:05:05;3.47;;;2.45;;
9821;SDS011;4950;46.042;14.472;2023-05-07T14:07:33;4.50;;;2.90;;
9821;SDS011;4950;46.042;14.472;2023-05-07T14:10:00;5.63;;;2.72;;
9821;SDS011;4950;46.042;14.472;2023-05-07T14:12:28;6.82;;;2.95;;
9821;SDS011;4950;46.042;14.472;2023-05-07T14:14:55;4.38;;;2.88;;
9821;SDS011;4950;46.042;14.472;2023-05-07T14:17:22;5.97;;;3.08;;
9821;SDS011;4950;46.042;14.472;2023-05-07T14:19:51;6.20;;;3.08;;
9821;SDS011;4950;46.042;14.472;2023-05-07T14:22:19;3.97;;;2.85;;
9821;SDS011;4950;46.042;14.472;2023-05-07T14:24:46;4.28;;;3.08;;
9821;SDS011;4950;46.042;14.472;2023-05-07T14:27:12;9.65;;;3.65;;
9821;SDS011;4950;46.042;14.472;2023-05-07T14:29:41;8.70;;;3.25;;
9821;SDS011;4950;46.042;14.472;2023-05-07T14:32:08;6.15;;;3.22;;
9821;SDS011;4950;46.042;14.472;2023-05-07T14:34:34;12.43;;;3.72;;
9821;SDS011;4950;46.042;14.472;2023-05-07T14:37:01;6.68;;;3.45;;
9821;SDS011;4950;46.042;14.472;2023-05-07T14:39:28;6.03;;;3.50;;
9821;SDS011;4950;46.042;14.472;2023-05-07T14:41:54;7.15;;;3.67;;
9821;SDS011;4950;46.042;14.472;2023-05-07T14:44:21;8.05;;;3.92;;
9821;SDS011;4950;46.042;14.472;2023-05-07T14:46:49;4.65;;;3.55;;
9821;SDS011;4950;46.042;14.472;2023-05-07T14:49:16;6.95;;;4.03;;
9821;SDS011;4950;46.042;14.472;2023-05-07T14:51:43;6.43;;;3.67;;
9821;SDS011;4950;46.042;14.472;2023-05-07T14:54:10;10.80;;;4.28;;
9821;SDS011;4950;46.042;14.472;2023-05-07T14:56:37;8.40;;;4.00;;
9821;SDS011;4950;46.042;14.472;2023-05-07T14:59:04;5.53;;;3.97;;
9821;SDS011;4950;46.042;14.472;2023-05-07T15:01:30;5.50;;;3.92;;
9821;SDS011;4950;46.042;14.472;2023-05-07T15:03:58;7.95;;;3.72;;
9821;SDS011;4950;46.042;14.472;2023-05-07T15:06:25;6.95;;;3.88;;
9821;SDS011;4950;46.042;14.472;2023-05-07T15:08:52;8.02;;;4.75;;
9821;SDS011;4950;46.042;14.472;2023-05-07T15:11:19;9.55;;;3.85;;
9821;SDS011;4950;46.042;14.472;2023-05-07T15:13:46;8.30;;;4.30;;
9821;SDS011;4950;46.042;14.472;2023-05-07T15:16:12;5.40;;;4.00;;